sensor_id;sensor_type;location;lat;lon;timestamp;pressure;altitude;pressure_sealevel;temperature;humidity
76694;BME280;65625;52.136;5.424;2023-04-23T00:01:46;100869.81;;;7.51;98.91
76694;BME280;65625;52.136;5.424;2023-04-23T00:04:14;100853.88;;;7.48;99.40
76694;BME280;65625;52.136;5.424;2023-04-23T00:06:41;100861.06;;;7.47;98.84
76694;BME280;65625;52.136;5.424;2023-04-23T00:09:08;100860.31;;;7.45;99.52
76694;BME280;65625;52.136;5.424;2023-04-23T00:11:35;100851.47;;;7.43;99.10
76694;BME280;65625;52.136;5.424;2023-04-23T00:14:02;100854.34;;;7.40;99.17
76694;BME280;65625;52.136;5.424;2023-04-23T00:16:28;100856.47;;;7.35;99.40
76694;BME280;65625;52.136;5.424;2023-04-23T00:18:55;100860.19;;;7.33;99.54
76694;BME280;65625;52.136;5.424;2023-04-23T00:21:22;100866.53;;;7.32;99.83
76694;BME280;65625;52.136;5.424;2023-04-23T00:23:48;100859.50;;;7.29;99.40
76694;BME280;65625;52.136;5.424;2023-04-23T00:26:15;100853.28;;;7.29;99.58
76694;BME280;65625;52.136;5.424;2023-04-23T00:28:43;100853.28;;;7.29;99.45
76694;BME280;65625;52.136;5.424;2023-04-23T00:31:10;100851.44;;;7.29;99.58
76694;BME280;65625;52.136;5.424;2023-04-23T00:33:36;100843.50;;;7.28;99.92
76694;BME280;65625;52.136;5.424;2023-04-23T00:36:04;100842.66;;;7.27;99.95
76694;BME280;65625;52.136;5.424;2023-04-23T00:38:31;100839.00;;;7.28;99.80
76694;BME280;65625;52.136;5.424;2023-04-23T00:40:57;100839.97;;;7.27;99.90
76694;BME280;65625;52.136;5.424;2023-04-23T00:43:24;100833.72;;;7.27;100.00
76694;BME280;65625;52.136;5.424;2023-04-23T00:45:51;100830.16;;;7.26;100.00
76694;BME280;65625;52.136;5.424;2023-04-23T00:48:18;100823.09;;;7.25;100.00
76694;BME280;65625;52.136;5.424;2023-04-23T00:50:45;100816.84;;;7.25;100.00
76694;BME280;65625;52.136;5.424;2023-04-23T00:53:11;100817.81;;;7.24;100.00
76694;BME280;65625;52.136;5.424;2023-04-23T00:55:39;100819.72;;;7.22;100.00
76694;BME280;65625;52.136;5.424;2023-04-23T00:58:06;100819.72;;;7.22;100.00
76694;BME280;65625;52.136;5.424;2023-04-23T01:00:40;100819.81;;;7.20;100.00
76694;BME280;65625;52.136;5.424;2023-04-23T01:03:09;100817.13;;;7.20;100.00
76694;BME280;65625;52.136;5.424;2023-04-23T01:05:36;100808.88;;;7.23;100.00
76694;BME280;65625;52.136;5.424;2023-04-23T01:08:03;100813.22;;;7.26;100.00
76694;BME280;65625;52.136;5.424;2023-04-23T01:10:30;100809.38;;;7.30;100.00
76694;BME280;65625;52.136;5.424;2023-04-23T01:12:58;100807.34;;;7.33;100.00
76694;BME280;65625;52.136;5.424;2023-04-23T01:15:25;100808.13;;;7.35;100.00
76694;BME280;65625;52.136;5.424;2023-04-23T01:17:52;100807.47;;;7.32;100.00
76694;BME280;65625;52.136;5.424;2023-04-23T01:20:19;100800.38;;;7.31;100.00
76694;BME280;65625;52.136;5.424;2023-04-23T01:22:45;100791.56;;;7.29;100.00
76694;BME280;65625;52.136;5.424;2023-04-23T01:25:12;100788.00;;;7.28;100.00
76694;BME280;65625;52.136;5.424;2023-04-23T01:27:39;100787.88;;;7.30;100.00
76694;BME280;65625;52.136;5.424;2023-04-23T01:30:07;100783.50;;;7.29;100.00
76694;BME280;65625;52.136;5.424;2023-04-23T01:32:34;100784.28;;;7.31;100.00
76694;BME280;65625;52.136;5.424;2023-04-23T01:35:01;100784.06;;;7.34;100.00
76694;BME280;65625;52.136;5.424;2023-04-23T01:37:29;100782.16;;;7.36;100.00
76694;BME280;65625;52.136;5.424;2023-04-23T01:39:55;100782.06;;;7.37;100.00
76694;BME280;65625;52.136;5.424;2023-04-23T01:42:22;100779.38;;;7.37;100.00
76694;BME280;65625;52.136;5.424;2023-04-23T01:44:52;100784.75;;;7.37;100.00
76694;BME280;65625;52.136;5.424;2023-04-23T01:47:19;100778.41;;;7.38;100.00
76694;BME280;65625;52.136;5.424;2023-04-23T01:49:46;100777.34;;;7.41;100.00
76694;BME280;65625;52.136;5.424;2023-04-23T01:52:12;100772.72;;;7.43;100.00
76694;BME280;65625;52.136;5.424;2023-04-23T01:54:39;100770.91;;;7.43;100.00
76694;BME280;65625;52.136;5.424;2023-04-23T01:57:06;100775.31;;;7.44;100.00
76694;BME280;65625;52.136;5.424;2023-04-23T01:59:33;100772.47;;;7.47;100.00
76694;BME280;65625;52.136;5.424;2023-04-23T02:01:59;100769.47;;;7.52;100.00
76694;BME280;65625;52.136;5.424;2023-04-23T02:04:27;100760.28;;;7.56;100.00
76694;BME280;65625;52.136;5.424;2023-04-23T02:06:55;100761.88;;;7.58;100.00
76694;BME280;65625;52.136;5.424;2023-04-23T02:09:21;100761.78;;;7.60;100.00
76694;BME280;65625;52.136;5.424;2023-04-23T02:11:48;100759.88;;;7.62;100.00
76694;BME280;65625;52.136;5.424;2023-04-23T02:14:15;100764.25;;;7.63;100.00
76694;BME280;65625;52.136;5.424;2023-04-23T02:16:42;100756.19;;;7.63;100.00
76694;BME280;65625;52.136;5.424;2023-04-23T02:19:10;100749.88;;;7.64;100.00
76694;BME280;65625;52.136;5.424;2023-04-23T02:21:41;100751.41;;;7.68;100.00
76694;BME280;65625;52.136;5.424;2023-04-23T02:24:07;100750.34;;;7.70;100.00
76694;BME280;65625;52.136;5.424;2023-04-23T02:26:35;100752.84;;;7.73;100.00
76694;BME280;65625;52.136;5.424;2023-04-23T02:29:02;100745.66;;;7.74;100.00
76694;BME280;65625;52.136;5.424;2023-04-23T02:31:28;100742.66;;;7.79;100.00
76694;BME280;65625;52.136;5.424;2023-04-23T02:33:55;100738.88;;;7.81;100.00
76694;BME280;65625;52.136;5.424;2023-04-23T02:36:21;100736.19;;;7.81;100.00
76694;BME280;65625;52.136;5.424;2023-04-23T02:38:48;100732.56;;;7.82;100.00
76694;BME280;65625;52.136;5.424;2023-04-23T02:41:16;100735.34;;;7.81;100.00
76694;BME280;65625;52.136;5.424;2023-04-23T02:43:42;100738.25;;;7.78;100.00
76694;BME280;65625;52.136;5.424;2023-04-23T02:46:09;100738.44;;;7.74;100.00
76694;BME280;65625;52.136;5.424;2023-04-23T02:48:37;100735.75;;;7.74;100.00
76694;BME280;65625;52.136;5.424;2023-04-23T02:51:05;100730.47;;;7.73;100.00
76694;BME280;65625;52.136;5.424;2023-04-23T02:53:32;100729.53;;;7.74;100.00
76694;BME280;65625;52.136;5.424;2023-04-23T02:55:59;100734.78;;;7.76;100.00
76694;BME280;65625;52.136;5.424;2023-04-23T02:58:26;100742.97;;;7.74;100.00
76694;BME280;65625;52.136;5.424;2023-04-23T03:00:56;100742.09;;;7.73;100.00
76694;BME280;65625;52.136;5.424;2023-04-23T03:03:24;100730.38;;;7.74;100.00
76694;BME280;65625;52.136;5.424;2023-04-23T03:05:52;100733.94;;;7.75;100.00
76694;BME280;65625;52.136;5.424;2023-04-23T03:08:19;100732.09;;;7.76;100.00
76694;BME280;65625;52.136;5.424;2023-04-23T03:10:46;100735.63;;;7.76;100.00
76694;BME280;65625;52.136;5.424;2023-04-23T03:13:13;100740.06;;;7.77;100.00
76694;BME280;65625;52.136;5.424;2023-04-23T03:15:40;100739.09;;;7.78;100.00
76694;BME280;65625;52.136;5.424;2023-04-23T03:18:07;100743.63;;;7.78;100.00
76694;BME280;65625;52.136;5.424;2023-04-23T03:20:35;100741.78;;;7.78;100.00
76694;BME280;65625;52.136;5.424;2023-04-23T03:23:02;100732.22;;;7.74;100.00
76694;BME280;65625;52.136;5.424;2023-04-23T03:25:32;100725.88;;;7.75;100.00
76694;BME280;65625;52.136;5.424;2023-04-23T03:27:59;100730.56;;;7.71;100.00
76694;BME280;65625;52.136;5.424;2023-04-23T03:30:28;100726.28;;;7.69;100.00
76694;BME280;65625;52.136;5.424;2023-04-23T03:32:55;100724.63;;;7.66;100.00
76694;BME280;65625;52.136;5.424;2023-04-23T03:35:23;100733.78;;;7.64;100.00
76694;BME280;65625;52.136;5.424;2023-04-23T03:37:50;100717.66;;;7.64;100.00
76694;BME280;65625;52.136;5.424;2023-04-23T03:40:18;100711.22;;;7.66;100.00
76694;BME280;65625;52.136;5.424;2023-04-23T03:42:48;100711.22;;;7.66;100.00
76694;BME280;65625;52.136;5.424;2023-04-23T03:45:17;100720.25;;;7.65;100.00
76694;BME280;65625;52.136;5.424;2023-04-23T03:47:44;100723.13;;;7.62;100.00
76694;BME280;65625;52.136;5.424;2023-04-23T03:50:11;100726.00;;;7.59;100.00
76694;BME280;65625;52.136;5.424;2023-04-23T03:52:40;100724.50;;;7.55;100.00
76694;BME280;65625;52.136;5.424;2023-04-23T03:55:12;100716.53;;;7.54;100.00
76694;BME280;65625;52.136;5.424;2023-04-23T03:57:42;100720.16;;;7.53;99.85
76694;BME280;65625;52.136;5.424;2023-04-23T04:00:23;100717.56;;;7.51;100.00
76694;BME280;65625;52.136;5.424;2023-04-23T04:02:49;100715.09;;;7.48;100.00
76694;BME280;65625;52.136;5.424;2023-04-23T04:05:16;100712.63;;;7.45;100.00
76694;BME280;65625;52.136;5.424;2023-04-23T04:07:44;100707.44;;;7.42;100.00
76694;BME280;65625;52.136;5.424;2023-04-23T04:10:11;100716.34;;;7.43;100.00
76694;BME280;65625;52.136;5.424;2023-04-23T04:12:37;100716.44;;;7.41;100.00
76694;BME280;65625;52.136;5.424;2023-04-23T04:15:08;100711.06;;;7.41;100.00
76694;BME280;65625;52.136;5.424;2023-04-23T04:17:34;100715.50;;;7.42;100.00
76694;BME280;65625;52.136;5.424;2023-04-23T04:20:01;100715.50;;;7.42;100.00
76694;BME280;65625;52.136;5.424;2023-04-23T04:22:28;100716.44;;;7.41;100.00
76694;BME280;65625;52.136;5.424;2023-04-23T04:24:54;100706.78;;;7.39;100.00
76694;BME280;65625;52.136;5.424;2023-04-23T04:27:22;100710.59;;;7.35;100.00
76694;BME280;65625;52.136;5.424;2023-04-23T04:29:49;100715.03;;;7.36;100.00
76694;BME280;65625;52.136;5.424;2023-04-23T04:32:17;100714.28;;;7.34;100.00
76694;BME280;65625;52.136;5.424;2023-04-23T04:34:44;100710.91;;;7.30;100.00
76694;BME280;65625;52.136;5.424;2023-04-23T04:37:10;100715.41;;;7.30;100.00
76694;BME280;65625;52.136;5.424;2023-04-23T04:39:38;100717.06;;;7.32;100.00
76694;BME280;65625;52.136;5.424;2023-04-23T04:42:04;100717.78;;;7.34;100.00
76694;BME280;65625;52.136;5.424;2023-04-23T04:44:32;100724.81;;;7.37;100.00
76694;BME280;65625;52.136;5.424;2023-04-23T04:46:59;100720.41;;;7.36;100.00
76694;BME280;65625;52.136;5.424;2023-04-23T04:49:26;100713.09;;;7.38;100.00
76694;BME280;65625;52.136;5.424;2023-04-23T04:51:53;100714.84;;;7.39;100.00
76694;BME280;65625;52.136;5.424;2023-04-23T04:54:20;100724.50;;;7.41;100.00
76694;BME280;65625;52.136;5.424;2023-04-23T04:56:47;100719.13;;;7.41;100.00
76694;BME280;65625;52.136;5.424;2023-04-23T04:59:13;100722.38;;;7.46;100.00
76694;BME280;65625;52.136;5.424;2023-04-23T05:01:40;100719.44;;;7.51;100.00
76694;BME280;65625;52.136;5.424;2023-04-23T05:04:06;100729.34;;;7.63;100.00
76694;BME280;65625;52.136;5.424;2023-04-23T05:06:33;100724.38;;;7.71;100.00
76694;BME280;65625;52.136;5.424;2023-04-23T05:09:00;100720.19;;;7.80;100.00
76694;BME280;65625;52.136;5.424;2023-04-23T05:11:27;100716.44;;;7.82;100.00
76694;BME280;65625;52.136;5.424;2023-04-23T05:13:53;100713.00;;;7.80;100.00
76694;BME280;65625;52.136;5.424;2023-04-23T05:16:19;100702.13;;;7.82;100.00
76694;BME280;65625;52.136;5.424;2023-04-23T05:18:46;100713.66;;;7.84;100.00
76694;BME280;65625;52.136;5.424;2023-04-23T05:21:14;100716.34;;;7.84;100.00
76694;BME280;65625;52.136;5.424;2023-04-23T05:23:41;100707.19;;;7.86;100.00
76694;BME280;65625;52.136;5.424;2023-04-23T05:26:07;100710.28;;;7.94;99.81
76694;BME280;65625;52.136;5.424;2023-04-23T05:28:34;100707.16;;;8.00;100.00
76694;BME280;65625;52.136;5.424;2023-04-23T05:31:00;100719.13;;;8.09;99.49
76694;BME280;65625;52.136;5.424;2023-04-23T05:33:27;100717.84;;;8.14;99.62
76694;BME280;65625;52.136;5.424;2023-04-23T05:36:04;100710.25;;;8.21;99.50
76694;BME280;65625;52.136;5.424;2023-04-23T05:38:31;100716.09;;;8.27;99.42
76694;BME280;65625;52.136;5.424;2023-04-23T05:40:58;100714.81;;;8.33;99.25
76694;BME280;65625;52.136;5.424;2023-04-23T05:43:25;100713.53;;;8.38;99.07
76694;BME280;65625;52.136;5.424;2023-04-23T05:45:51;100720.22;;;8.45;98.99
76694;BME280;65625;52.136;5.424;2023-04-23T05:48:18;100710.88;;;8.51;99.13
76694;BME280;65625;52.136;5.424;2023-04-23T05:50:44;100721.75;;;8.62;98.97
76694;BME280;65625;52.136;5.424;2023-04-23T05:53:13;100717.56;;;8.70;98.70
76694;BME280;65625;52.136;5.424;2023-04-23T05:55:40;100724.13;;;8.79;98.56
76694;BME280;65625;52.136;5.424;2023-04-23T05:58:06;100724.56;;;8.85;98.29
76694;BME280;65625;52.136;5.424;2023-04-23T06:00:32;100719.50;;;8.93;98.13
76694;BME280;65625;52.136;5.424;2023-04-23T06:03:00;100716.16;;;9.03;97.88
76694;BME280;65625;52.136;5.424;2023-04-23T06:05:27;100720.75;;;9.13;97.92
76694;BME280;65625;52.136;5.424;2023-04-23T06:07:53;100718.84;;;9.28;97.56
76694;BME280;65625;52.136;5.424;2023-04-23T06:10:22;100714.28;;;9.41;97.48
76694;BME280;65625;52.136;5.424;2023-04-23T06:12:48;100702.97;;;9.72;97.37
76694;BME280;65625;52.136;5.424;2023-04-23T06:15:15;100703.88;;;10.07;96.77
76694;BME280;65625;52.136;5.424;2023-04-23T06:17:41;100697.53;;;10.88;96.29
76694;BME280;65625;52.136;5.424;2023-04-23T06:20:08;100683.50;;;14.06;90.36
76694;BME280;65625;52.136;5.424;2023-04-23T06:22:36;100673.94;;;17.10;77.68
76694;BME280;65625;52.136;5.424;2023-04-23T06:25:04;100676.03;;;18.57;70.78
76694;BME280;65625;52.136;5.424;2023-04-23T06:27:31;100670.31;;;19.77;63.54
76694;BME280;65625;52.136;5.424;2023-04-23T06:30:04;100659.91;;;20.71;60.71
76694;BME280;65625;52.136;5.424;2023-04-23T06:32:31;100667.00;;;21.55;56.23
76694;BME280;65625;52.136;5.424;2023-04-23T06:34:58;100665.00;;;22.13;54.56
76694;BME280;65625;52.136;5.424;2023-04-23T06:37:27;100670.00;;;22.45;51.53
76694;BME280;65625;52.136;5.424;2023-04-23T06:39:57;100659.47;;;22.49;51.63
76694;BME280;65625;52.136;5.424;2023-04-23T06:42:23;100657.19;;;22.52;49.48
76694;BME280;65625;52.136;5.424;2023-04-23T06:45:22;100657.47;;;23.06;48.40
76694;BME280;65625;52.136;5.424;2023-04-23T06:47:49;100644.06;;;23.99;46.30
76694;BME280;65625;52.136;5.424;2023-04-23T06:50:16;100642.44;;;24.31;45.00
76694;BME280;65625;52.136;5.424;2023-04-23T06:52:43;100653.09;;;24.47;44.49
76694;BME280;65625;52.136;5.424;2023-04-23T06:55:10;100643.56;;;24.49;43.24
76694;BME280;65625;52.136;5.424;2023-04-23T06:57:37;100645.00;;;24.26;42.88
76694;BME280;65625;52.136;5.424;2023-04-23T07:00:03;100635.31;;;24.75;41.76
76694;BME280;65625;52.136;5.424;2023-04-23T07:02:36;100635.69;;;24.46;41.96
76694;BME280;65625;52.136;5.424;2023-04-23T07:05:04;100641.22;;;24.46;41.81
76694;BME280;65625;52.136;5.424;2023-04-23T07:07:30;100628.28;;;25.06;41.59
76694;BME280;65625;52.136;5.424;2023-04-23T07:09:57;100632.00;;;25.70;41.10
76694;BME280;65625;52.136;5.424;2023-04-23T07:12:24;100625.94;;;25.92;40.42
76694;BME280;65625;52.136;5.424;2023-04-23T07:14:50;100634.41;;;26.10;38.54
76694;BME280;65625;52.136;5.424;2023-04-23T07:17:18;100631.63;;;26.48;40.83
76694;BME280;65625;52.136;5.424;2023-04-23T07:19:46;100624.16;;;26.17;37.86
76694;BME280;65625;52.136;5.424;2023-04-23T07:22:13;100625.16;;;26.30;38.33
76694;BME280;65625;52.136;5.424;2023-04-23T07:24:39;100623.38;;;26.42;38.03
76694;BME280;65625;52.136;5.424;2023-04-23T07:27:07;100630.22;;;26.70;37.66
76694;BME280;65625;52.136;5.424;2023-04-23T07:29:33;100624.00;;;26.44;37.13
76694;BME280;65625;52.136;5.424;2023-04-23T07:32:02;100626.13;;;26.97;38.13
76694;BME280;65625;52.136;5.424;2023-04-23T07:34:28;100626.03;;;27.53;36.93
76694;BME280;65625;52.136;5.424;2023-04-23T07:36:55;100623.94;;;27.24;37.15
76694;BME280;65625;52.136;5.424;2023-04-23T07:39:22;100628.88;;;27.65;37.01
76694;BME280;65625;52.136;5.424;2023-04-23T07:41:49;100624.78;;;27.06;36.48
76694;BME280;65625;52.136;5.424;2023-04-23T07:44:15;100616.88;;;27.10;36.13
76694;BME280;65625;52.136;5.424;2023-04-23T07:46:42;100625.72;;;27.18;37.44
76694;BME280;65625;52.136;5.424;2023-04-23T07:49:08;100612.84;;;26.81;37.34
76694;BME280;65625;52.136;5.424;2023-04-23T07:51:35;100607.53;;;26.80;36.39
76694;BME280;65625;52.136;5.424;2023-04-23T07:54:01;100616.03;;;27.27;36.88
76694;BME280;65625;52.136;5.424;2023-04-23T07:56:28;100609.22;;;26.81;36.90
76694;BME280;65625;52.136;5.424;2023-04-23T07:58:58;100609.94;;;26.07;38.66
76694;BME280;65625;52.136;5.424;2023-04-23T08:01:25;100605.75;;;25.85;38.17
76694;BME280;65625;52.136;5.424;2023-04-23T08:03:51;100602.03;;;26.42;37.59
76694;BME280;65625;52.136;5.424;2023-04-23T08:06:24;100599.56;;;26.34;37.14
76694;BME280;65625;52.136;5.424;2023-04-23T08:08:52;100603.19;;;26.66;37.01
76694;BME280;65625;52.136;5.424;2023-04-23T08:11:21;100602.38;;;27.08;37.56
76694;BME280;65625;52.136;5.424;2023-04-23T08:13:47;100594.94;;;26.53;36.74
76694;BME280;65625;52.136;5.424;2023-04-23T08:16:14;100604.56;;;26.50;36.12
76694;BME280;65625;52.136;5.424;2023-04-23T08:18:40;100590.53;;;26.76;37.33
76694;BME280;65625;52.136;5.424;2023-04-23T08:21:07;100591.91;;;26.61;37.33
76694;BME280;65625;52.136;5.424;2023-04-23T08:23:34;100584.38;;;27.17;37.66
76694;BME280;65625;52.136;5.424;2023-04-23T08:26:00;100582.88;;;27.39;37.57
76694;BME280;65625;52.136;5.424;2023-04-23T08:28:30;100586.13;;;26.62;36.64
76694;BME280;65625;52.136;5.424;2023-04-23T08:30:57;100581.31;;;26.27;37.07
76694;BME280;65625;52.136;5.424;2023-04-23T08:33:23;100586.34;;;26.61;35.98
76694;BME280;65625;52.136;5.424;2023-04-23T08:35:50;100583.63;;;26.30;36.94
76694;BME280;65625;52.136;5.424;2023-04-23T08:38:17;100590.22;;;25.91;37.04
76694;BME280;65625;52.136;5.424;2023-04-23T08:40:44;100580.31;;;26.14;38.77
76694;BME280;65625;52.136;5.424;2023-04-23T08:43:33;100587.28;;;26.24;38.94
76694;BME280;65625;52.136;5.424;2023-04-23T08:46:03;100581.41;;;26.00;37.71
76694;BME280;65625;52.136;5.424;2023-04-23T08:48:29;100580.59;;;26.00;37.72
76694;BME280;65625;52.136;5.424;2023-04-23T08:50:58;100582.56;;;25.86;39.52
76694;BME280;65625;52.136;5.424;2023-04-23T08:53:26;100579.06;;;26.10;37.04
76694;BME280;65625;52.136;5.424;2023-04-23T08:56:00;100586.56;;;25.53;40.26
76694;BME280;65625;52.136;5.424;2023-04-23T08:58:28;100578.56;;;25.76;38.26
76694;BME280;65625;52.136;5.424;2023-04-23T09:00:56;100578.09;;;25.92;37.90
76694;BME280;65625;52.136;5.424;2023-04-23T09:03:23;100577.50;;;25.13;39.26
76694;BME280;65625;52.136;5.424;2023-04-23T09:05:50;100578.34;;;25.07;40.75
76694;BME280;65625;52.136;5.424;2023-04-23T09:08:19;100572.03;;;25.70;37.72
76694;BME280;65625;52.136;5.424;2023-04-23T09:10:46;100573.94;;;24.86;40.69
76694;BME280;65625;52.136;5.424;2023-04-23T09:13:13;100572.72;;;23.90;42.45
76694;BME280;65625;52.136;5.424;2023-04-23T09:15:39;100574.13;;;24.52;41.46
76694;BME280;65625;52.136;5.424;2023-04-23T09:18:09;100569.88;;;24.89;41.41
76694;BME280;65625;52.136;5.424;2023-04-23T09:20:35;100578.84;;;24.78;40.32
76694;BME280;65625;52.136;5.424;2023-04-23T09:23:06;100560.50;;;25.16;39.40
76694;BME280;65625;52.136;5.424;2023-04-23T09:25:33;100576.50;;;24.75;39.07
76694;BME280;65625;52.136;5.424;2023-04-23T09:28:00;100570.31;;;24.60;41.19
76694;BME280;65625;52.136;5.424;2023-04-23T09:30:26;100565.84;;;24.39;41.13
76694;BME280;65625;52.136;5.424;2023-04-23T09:32:53;100562.44;;;24.57;38.97
76694;BME280;65625;52.136;5.424;2023-04-23T09:35:21;100554.19;;;24.76;40.02
76694;BME280;65625;52.136;5.424;2023-04-23T09:37:49;100553.47;;;25.07;39.58
76694;BME280;65625;52.136;5.424;2023-04-23T09:40:21;100555.00;;;24.96;37.44
76694;BME280;65625;52.136;5.424;2023-04-23T09:42:49;100556.47;;;24.14;39.53
76694;BME280;65625;52.136;5.424;2023-04-23T09:45:16;100556.91;;;23.51;42.51
76694;BME280;65625;52.136;5.424;2023-04-23T09:47:49;100558.75;;;23.03;42.02
76694;BME280;65625;52.136;5.424;2023-04-23T09:50:39;100558.59;;;22.84;41.45
76694;BME280;65625;52.136;5.424;2023-04-23T09:53:08;100552.41;;;22.26;45.06
76694;BME280;65625;52.136;5.424;2023-04-23T09:55:37;100549.88;;;24.02;42.96
76694;BME280;65625;52.136;5.424;2023-04-23T09:58:12;100541.03;;;24.78;39.42
76694;BME280;65625;52.136;5.424;2023-04-23T10:00:41;100550.53;;;25.02;40.14
76694;BME280;65625;52.136;5.424;2023-04-23T10:03:08;100536.53;;;24.84;38.26
76694;BME280;65625;52.136;5.424;2023-04-23T10:05:40;100543.13;;;24.44;38.39
76694;BME280;65625;52.136;5.424;2023-04-23T10:08:11;100549.09;;;23.61;39.40
76694;BME280;65625;52.136;5.424;2023-04-23T10:10:39;100545.16;;;23.83;38.64
76694;BME280;65625;52.136;5.424;2023-04-23T10:13:26;100544.00;;;24.83;38.31
76694;BME280;65625;52.136;5.424;2023-04-23T10:15:53;100535.84;;;25.72;37.24
76694;BME280;65625;52.136;5.424;2023-04-23T10:18:26;100542.59;;;25.38;36.08
76694;BME280;65625;52.136;5.424;2023-04-23T10:20:53;100540.31;;;25.09;35.82
76694;BME280;65625;52.136;5.424;2023-04-23T10:23:21;100533.22;;;23.22;40.14
76694;BME280;65625;52.136;5.424;2023-04-23T10:25:50;100541.22;;;24.57;38.44
76694;BME280;65625;52.136;5.424;2023-04-23T10:28:18;100536.13;;;24.48;37.29
76694;BME280;65625;52.136;5.424;2023-04-23T10:30:52;100534.44;;;23.60;37.43
76694;BME280;65625;52.136;5.424;2023-04-23T10:33:19;100538.03;;;23.14;39.13
76694;BME280;65625;52.136;5.424;2023-04-23T10:35:57;100528.66;;;24.03;39.25
76694;BME280;65625;52.136;5.424;2023-04-23T10:38:25;100534.56;;;23.87;38.45
76694;BME280;65625;52.136;5.424;2023-04-23T10:40:54;100525.69;;;23.44;39.35
76694;BME280;65625;52.136;5.424;2023-04-23T10:43:24;100526.13;;;22.24;42.57
76694;BME280;65625;52.136;5.424;2023-04-23T10:45:51;100517.91;;;21.31;44.56
76694;BME280;65625;52.136;5.424;2023-04-23T10:48:19;100513.19;;;21.25;46.87
76694;BME280;65625;52.136;5.424;2023-04-23T10:50:46;100510.41;;;21.55;44.90
76694;BME280;65625;52.136;5.424;2023-04-23T10:53:34;100508.72;;;22.17;44.96
76694;BME280;65625;52.136;5.424;2023-04-23T10:56:05;100506.34;;;21.72;43.40
76694;BME280;65625;52.136;5.424;2023-04-23T10:58:47;100502.66;;;22.00;42.21
76694;BME280;65625;52.136;5.424;2023-04-23T11:01:16;100505.13;;;21.74;42.96
76694;BME280;65625;52.136;5.424;2023-04-23T11:03:43;100498.00;;;22.49;42.42
76694;BME280;65625;52.136;5.424;2023-04-23T11:06:19;100496.50;;;22.47;41.09
76694;BME280;65625;52.136;5.424;2023-04-23T11:09:28;100485.28;;;22.00;42.04
76694;BME280;65625;52.136;5.424;2023-04-23T11:11:56;100492.34;;;21.67;40.94
76694;BME280;65625;52.136;5.424;2023-04-23T11:17:07;100479.44;;;22.03;42.90
76694;BME280;65625;52.136;5.424;2023-04-23T11:19:37;100481.00;;;21.91;42.86
76694;BME280;65625;52.136;5.424;2023-04-23T11:22:16;100476.38;;;21.20;42.93
76694;BME280;65625;52.136;5.424;2023-04-23T11:24:45;100459.63;;;21.29;42.61
76694;BME280;65625;52.136;5.424;2023-04-23T11:27:16;100457.91;;;21.28;43.60
76694;BME280;65625;52.136;5.424;2023-04-23T11:29:45;100456.31;;;21.19;42.22
76694;BME280;65625;52.136;5.424;2023-04-23T11:32:14;100464.09;;;20.72;43.35
76694;BME280;65625;52.136;5.424;2023-04-23T11:34:43;100453.22;;;20.79;41.95
76694;BME280;65625;52.136;5.424;2023-04-23T11:37:13;100464.56;;;20.47;42.13
76694;BME280;65625;52.136;5.424;2023-04-23T11:39:41;100454.06;;;20.65;43.95
76694;BME280;65625;52.136;5.424;2023-04-23T11:42:13;100448.09;;;20.90;42.66
76694;BME280;65625;52.136;5.424;2023-04-23T11:44:41;100436.59;;;21.30;42.72
76694;BME280;65625;52.136;5.424;2023-04-23T11:47:11;100439.53;;;21.29;42.31
76694;BME280;65625;52.136;5.424;2023-04-23T11:49:42;100433.63;;;21.11;43.40
76694;BME280;65625;52.136;5.424;2023-04-23T11:52:11;100425.56;;;20.95;42.50
76694;BME280;65625;52.136;5.424;2023-04-23T11:54:41;100422.69;;;20.53;44.00
76694;BME280;65625;52.136;5.424;2023-04-23T11:57:07;100421.22;;;20.71;43.31
76694;BME280;65625;52.136;5.424;2023-04-23T11:59:35;100409.22;;;20.87;43.74
76694;BME280;65625;52.136;5.424;2023-04-23T12:02:01;100412.09;;;20.64;44.24
76694;BME280;65625;52.136;5.424;2023-04-23T12:04:29;100403.31;;;20.54;43.73
76694;BME280;65625;52.136;5.424;2023-04-23T12:06:57;100410.22;;;20.36;43.88
76694;BME280;65625;52.136;5.424;2023-04-23T12:09:28;100402.78;;;20.07;44.63
76694;BME280;65625;52.136;5.424;2023-04-23T12:11:56;100399.91;;;19.86;44.54
76694;BME280;65625;52.136;5.424;2023-04-23T12:14:28;100397.06;;;19.79;44.30
76694;BME280;65625;52.136;5.424;2023-04-23T12:16:56;100400.56;;;19.51;45.01
76694;BME280;65625;52.136;5.424;2023-04-23T12:19:26;100390.69;;;19.64;44.40
76694;BME280;65625;52.136;5.424;2023-04-23T12:21:58;100397.34;;;19.84;44.68
76694;BME280;65625;52.136;5.424;2023-04-23T12:24:30;100398.69;;;20.03;44.88
76694;BME280;65625;52.136;5.424;2023-04-23T12:26:58;100387.69;;;20.26;44.63
76694;BME280;65625;52.136;5.424;2023-04-23T12:29:28;100385.44;;;20.29;45.47
76694;BME280;65625;52.136;5.424;2023-04-23T12:31:57;100383.25;;;20.39;43.98
76694;BME280;65625;52.136;5.424;2023-04-23T12:34:24;100381.75;;;20.51;45.07
76694;BME280;65625;52.136;5.424;2023-04-23T12:36:54;100372.06;;;20.70;45.19
76694;BME280;65625;52.136;5.424;2023-04-23T12:39:24;100374.53;;;20.50;44.91
76694;BME280;65625;52.136;5.424;2023-04-23T12:42:02;100372.91;;;20.12;45.14
76694;BME280;65625;52.136;5.424;2023-04-23T12:44:34;100358.16;;;19.84;45.97
76694;BME280;65625;52.136;5.424;2023-04-23T12:47:03;100355.03;;;19.87;44.69
76694;BME280;65625;52.136;5.424;2023-04-23T12:49:31;100350.84;;;19.76;45.08
76694;BME280;65625;52.136;5.424;2023-04-23T12:51:59;100349.50;;;20.24;45.13
76694;BME280;65625;52.136;5.424;2023-04-23T12:54:33;100348.28;;;20.41;44.19
76694;BME280;65625;52.136;5.424;2023-04-23T12:57:03;100345.16;;;20.44;44.14
76694;BME280;65625;52.136;5.424;2023-04-23T12:59:30;100335.47;;;20.63;43.29